Time;durP1;ratioP1;P1;durP2;ratioP2;P2;SDS_P1;SDS_P2;PMS_P1;PMS_P2;Temp;Humidity;BMP_temperature;BMP_pressure;BME280_temperature;BME280_humidity;BME280_pressure;Samples;Min_cycle;Max_cycle;Signal;HPM_P1;HPM_P2
2023/10/08 00:02:21;;;;;;;0.30;0.30;;;12.70;99.90;;;;;;5046232;28;20547;-61
2023/10/08 00:04:50;;;;;;;0.47;0.38;;;12.70;99.90;;;;;;5043165;28;20055;-61
2023/10/08 00:07:21;;;;;;;0.45;0.40;;;12.60;99.90;;;;;;5046467;28;20035;-61
2023/10/08 00:09:51;;;;;;;0.40;0.40;;;12.60;99.90;;;;;;5038048;28;20036;-61
2023/10/08 00:12:19;;;;;;;0.75;0.52;;;12.60;99.90;;;;;;5041007;28;20033;-61
2023/10/08 00:14:49;;;;;;;0.55;0.45;;;12.60;99.90;;;;;;5041153;28;20482;-61
2023/10/08 00:17:18;;;;;;;1.30;0.50;;;12.60;99.90;;;;;;5042334;28;20021;-61
2023/10/08 00:19:44;;;;;;;0.60;0.60;;;12.60;99.90;;;;;;5037732;28;20025;-61
2023/10/08 00:22:13;;;;;;;1.88;0.65;;;12.50;99.90;;;;;;5037673;28;20548;-61
2023/10/08 00:24:41;;;;;;;0.65;0.65;;;12.50;99.90;;;;;;5045332;28;20477;-61
2023/10/08 00:27:08;;;;;;;0.80;0.70;;;12.50;99.90;;;;;;5044252;28;20013;-61
2023/10/08 00:29:34;;;;;;;0.60;0.60;;;12.40;99.90;;;;;;5044156;28;20442;-61
2023/10/08 00:32:03;;;;;;;0.93;0.70;;;12.40;99.90;;;;;;5041350;28;20037;-60
2023/10/08 00:34:41;;;;;;;1.00;0.60;;;12.40;99.90;;;;;;5044491;28;20108;-61
2023/10/08 00:37:08;;;;;;;1.10;0.75;;;12.40;99.90;;;;;;5043642;28;20021;-61
2023/10/08 00:39:37;;;;;;;1.02;0.90;;;12.40;99.90;;;;;;5040527;28;20029;-62
2023/10/08 00:42:06;;;;;;;1.83;0.80;;;12.30;99.90;;;;;;5042960;28;20021;-60
2023/10/08 00:44:35;;;;;;;2.38;0.70;;;12.30;99.90;;;;;;5048529;28;20033;-60
2023/10/08 00:47:01;;;;;;;1.23;0.70;;;12.30;99.90;;;;;;5041835;28;20048;-60
2023/10/08 00:49:48;;;;;;;1.48;0.90;;;12.30;99.90;;;;;;5047098;28;20033;-60
2023/10/08 00:57:28;;;;;;;1.83;1.10;;;12.00;99.90;;;;;;5046146;28;20392;-60
2023/10/08 00:59:55;;;;;;;1.17;1.05;;;11.80;99.90;;;;;;5050193;28;20025;-60
2023/10/08 01:02:45;;;;;;;3.15;1.42;;;11.70;99.90;;;;;;5043726;28;20041;-61
2023/10/08 01:05:12;;;;;;;3.60;1.67;;;11.60;99.90;;;;;;5046409;28;20387;-60
2023/10/08 01:07:44;;;;;;;4.82;1.50;;;11.40;99.90;;;;;;5048314;28;20116;-60
2023/10/08 01:10:13;;;;;;;12.48;1.60;;;11.30;99.90;;;;;;5033821;28;20032;-60
2023/10/08 01:13:04;;;;;;;4.93;1.65;;;11.30;99.90;;;;;;5041496;28;20025;-60
2023/10/08 01:15:31;;;;;;;4.45;1.90;;;11.30;99.90;;;;;;5043126;28;20083;-60
2023/10/08 01:18:00;;;;;;;9.20;1.63;;;11.30;99.90;;;;;;5048221;28;20469;-59
2023/10/08 01:20:37;;;;;;;7.95;1.35;;;11.20;99.90;;;;;;5048334;28;20108;-60
2023/10/08 01:23:10;;;;;;;5.35;1.77;;;11.20;99.90;;;;;;5027544;28;20115;-59
2023/10/08 01:25:36;;;;;;;6.30;1.50;;;11.20;99.90;;;;;;5047715;28;20036;-59
2023/10/08 01:28:09;;;;;;;5.50;1.50;;;11.20;99.90;;;;;;5049977;28;20104;-59
2023/10/08 01:30:41;;;;;;;4.40;1.65;;;11.20;99.90;;;;;;5043872;28;20578;-59
2023/10/08 01:33:14;;;;;;;3.38;1.20;;;11.20;99.90;;;;;;5041104;28;20462;-59
2023/10/08 01:35:40;;;;;;;5.00;1.80;;;11.20;99.90;;;;;;5046509;28;20075;-59
2023/10/08 01:38:07;;;;;;;2.35;1.30;;;11.20;99.90;;;;;;5047052;28;20443;-59
2023/10/08 01:40:32;;;;;;;6.80;1.70;;;11.20;99.90;;;;;;5037862;28;20022;-59
2023/10/08 01:43:03;;;;;;;4.38;1.38;;;11.10;99.90;;;;;;5044396;28;20051;-59
2023/10/08 01:45:30;;;;;;;4.63;1.40;;;11.10;99.90;;;;;;5046645;28;20555;-60
2023/10/08 01:47:56;;;;;;;4.75;1.65;;;11.10;99.90;;;;;;5047726;28;20477;-60
2023/10/08 01:50:24;;;;;;;3.35;1.75;;;11.10;99.90;;;;;;5043045;28;20022;-59
2023/10/08 01:52:53;;;;;;;5.50;1.58;;;11.10;99.90;;;;;;5043983;28;20108;-59
2023/10/08 01:55:19;;;;;;;8.23;1.50;;;11.10;99.90;;;;;;5043002;28;20390;-59
2023/10/08 01:57:45;;;;;;;10.98;1.92;;;11.10;99.90;;;;;;5042658;28;20029;-60
2023/10/08 02:00:12;;;;;;;8.50;1.50;;;11.00;99.90;;;;;;5042676;28;20037;-59
2023/10/08 02:02:40;;;;;;;6.82;2.13;;;11.10;99.90;;;;;;5048134;28;20060;-59
2023/10/08 02:05:06;;;;;;;7.53;2.05;;;11.10;99.90;;;;;;5048785;28;20384;-59
2023/10/08 02:07:33;;;;;;;2.70;1.40;;;11.10;99.90;;;;;;5045396;28;20068;-59
2023/10/08 02:09:59;;;;;;;5.15;1.45;;;11.10;99.90;;;;;;5044312;28;20021;-59
2023/10/08 02:12:25;;;;;;;3.65;1.33;;;11.10;99.90;;;;;;5044298;28;20111;-59
2023/10/08 02:14:50;;;;;;;5.63;1.42;;;11.00;99.90;;;;;;5044710;28;20026;-59
2023/10/08 02:17:17;;;;;;;4.05;1.92;;;11.00;99.90;;;;;;5041328;28;20029;-59
2023/10/08 02:19:43;;;;;;;4.82;1.50;;;11.00;99.90;;;;;;5046701;28;20397;-58
2023/10/08 02:22:11;;;;;;;9.95;2.78;;;11.00;99.90;;;;;;5041734;28;20036;-58
2023/10/08 02:24:37;;;;;;;3.70;1.50;;;11.00;99.90;;;;;;5046540;28;20052;-58
2023/10/08 02:27:03;;;;;;;5.88;1.80;;;11.10;99.90;;;;;;5043563;28;20033;-58
2023/10/08 02:29:30;;;;;;;7.15;1.70;;;11.00;99.90;;;;;;5045327;28;20029;-58
2023/10/08 02:31:59;;;;;;;5.50;2.42;;;11.00;99.90;;;;;;5044769;28;20039;-58
2023/10/08 02:34:25;;;;;;;7.35;1.50;;;11.00;99.90;;;;;;5044618;28;20491;-59
2023/10/08 02:36:50;;;;;;;4.97;1.95;;;11.00;99.90;;;;;;5039858;28;20029;-58
2023/10/08 02:39:21;;;;;;;7.32;2.05;;;11.00;99.90;;;;;;5048583;28;20035;-59
2023/10/08 02:41:47;;;;;;;4.93;1.50;;;11.00;99.90;;;;;;5045741;28;20026;-59
2023/10/08 02:44:14;;;;;;;7.60;2.00;;;11.00;99.90;;;;;;5047899;28;20032;-58
2023/10/08 02:46:49;;;;;;;4.50;1.80;;;11.10;99.90;;;;;;5047674;28;20102;-58
2023/10/08 02:49:25;;;;;;;8.52;1.70;;;11.00;99.90;;;;;;5047947;28;20021;-58
2023/10/08 02:51:54;;;;;;;5.95;1.63;;;11.00;99.90;;;;;;5046691;28;20021;-57
2023/10/08 02:54:31;;;;;;;3.67;1.33;;;11.10;99.90;;;;;;5044540;28;20044;-58
2023/10/08 02:56:59;;;;;;;7.05;1.77;;;11.10;99.90;;;;;;5040330;28;20031;-57
2023/10/08 02:59:33;;;;;;;2.65;1.50;;;11.10;99.90;;;;;;5038561;28;20029;-57
2023/10/08 03:02:02;;;;;;;6.47;1.50;;;11.10;99.90;;;;;;5045868;28;20513;-58
2023/10/08 03:04:27;;;;;;;4.68;1.48;;;11.10;99.90;;;;;;5049074;28;20037;-58
2023/10/08 03:06:53;;;;;;;8.60;1.73;;;11.00;99.90;;;;;;5045354;28;20410;-58
2023/10/08 03:09:22;;;;;;;10.52;1.63;;;11.10;99.90;;;;;;5038638;28;20094;-58
2023/10/08 03:11:49;;;;;;;6.13;2.10;;;11.10;99.90;;;;;;5047226;28;20451;-58
2023/10/08 03:14:21;;;;;;;8.23;2.10;;;11.10;99.90;;;;;;5048806;28;20077;-58
2023/10/08 03:16:48;;;;;;;4.53;1.63;;;11.10;99.90;;;;;;5048787;28;20090;-59
2023/10/08 03:19:14;;;;;;;8.98;1.65;;;11.10;99.90;;;;;;5048101;28;20021;-59
2023/10/08 03:24:29;;;;;;;4.45;1.95;;;11.00;99.90;;;;;;5046103;28;20021;-58
2023/10/08 03:27:05;;;;;;;7.03;3.10;;;11.10;99.90;;;;;;5045586;28;20025;-58
2023/10/08 03:29:32;;;;;;;4.43;2.17;;;11.10;99.90;;;;;;5041695;28;20282;-58
2023/10/08 03:31:57;;;;;;;6.32;1.63;;;11.10;99.90;;;;;;5048677;28;20024;-58
2023/10/08 03:34:27;;;;;;;6.25;2.20;;;11.10;99.90;;;;;;5048871;28;20104;-58
2023/10/08 03:36:59;;;;;;;4.43;1.50;;;11.10;99.90;;;;;;5048801;28;20402;-58
2023/10/08 03:39:48;;;;;;;5.93;1.30;;;11.00;99.90;;;;;;5046914;28;20037;-58
2023/10/08 03:42:13;;;;;;;5.75;2.17;;;11.00;99.90;;;;;;5043309;28;20032;-59
2023/10/08 03:44:42;;;;;;;3.55;1.50;;;11.10;99.90;;;;;;5044241;28;20032;-59
2023/10/08 03:47:10;;;;;;;3.53;1.60;;;11.00;99.90;;;;;;5035752;28;20013;-59
2023/10/08 03:49:44;;;;;;;3.88;1.60;;;11.00;99.90;;;;;;5033852;28;20102;-59
2023/10/08 03:52:10;;;;;;;5.43;1.30;;;11.10;99.90;;;;;;5046756;28;20033;-59
2023/10/08 03:54:36;;;;;;;5.57;1.60;;;11.10;99.90;;;;;;5039874;28;20029;-59
2023/10/08 03:57:11;;;;;;;4.75;1.70;;;11.10;99.90;;;;;;5037638;28;20032;-59
2023/10/08 03:59:41;;;;;;;9.25;1.55;;;11.10;99.90;;;;;;5035096;28;20026;-59
2023/10/08 04:02:14;;;;;;;6.15;1.98;;;11.10;99.90;;;;;;5033895;28;20026;-59
2023/10/08 04:04:53;;;;;;;5.10;1.80;;;11.10;99.90;;;;;;5043859;28;20024;-59
2023/10/08 04:10:20;;;;;;;5.65;1.75;;;11.10;99.90;;;;;;5040143;28;20030;-59
2023/10/08 04:12:48;;;;;;;2.95;1.52;;;11.10;99.90;;;;;;5042735;28;20116;-59
2023/10/08 04:15:16;;;;;;;4.93;1.80;;;11.10;99.90;;;;;;5033818;28;20021;-59
2023/10/08 04:17:45;;;;;;;4.78;1.70;;;11.10;99.90;;;;;;5032602;28;20471;-59
2023/10/08 04:22:59;;;;;;;6.63;1.73;;;11.00;99.90;;;;;;5029650;28;20043;-59
2023/10/08 04:25:28;;;;;;;3.88;2.00;;;11.00;99.90;;;;;;5038778;28;20029;-58
2023/10/08 04:28:00;;;;;;;12.40;3.30;;;11.00;99.90;;;;;;5032190;28;20569;-59
2023/10/08 04:30:33;;;;;;;5.57;1.83;;;11.00;99.90;;;;;;5040499;28;20044;-58
2023/10/08 04:33:06;;;;;;;5.65;1.65;;;11.00;99.90;;;;;;5031445;28;20234;-59
2023/10/08 04:35:36;;;;;;;4.82;1.58;;;11.00;99.90;;;;;;5031580;28;20112;-59
2023/10/08 04:38:03;;;;;;;6.53;1.60;;;11.00;99.90;;;;;;5036508;28;20026;-59
2023/10/08 04:40:33;;;;;;;7.72;1.80;;;11.00;99.90;;;;;;5034633;28;20034;-59
2023/10/08 04:43:02;;;;;;;5.10;1.73;;;11.00;99.90;;;;;;5034786;28;20056;-58
2023/10/08 04:45:27;;;;;;;8.15;1.90;;;11.00;99.90;;;;;;5035968;28;20110;-58
2023/10/08 04:47:53;;;;;;;2.05;1.30;;;11.00;99.90;;;;;;5038253;28;20029;-59
2023/10/08 04:50:21;;;;;;;5.10;1.65;;;11.00;99.90;;;;;;5030170;28;20023;-59
2023/10/08 04:52:58;;;;;;;4.35;1.60;;;11.00;99.90;;;;;;5031286;28;20216;-58
2023/10/08 04:55:28;;;;;;;5.00;1.92;;;11.00;99.90;;;;;;5044166;28;20547;-58
2023/10/08 04:57:55;;;;;;;6.85;1.83;;;11.00;99.90;;;;;;5039192;28;20116;-58
2023/10/08 05:00:41;;;;;;;2.67;1.40;;;11.00;99.90;;;;;;5040576;28;20451;-58
2023/10/08 05:03:13;;;;;;;10.02;1.92;;;11.00;99.90;;;;;;5036904;28;20116;-58
2023/10/08 05:05:55;;;;;;;1.65;1.23;;;11.00;99.90;;;;;;5032647;28;20021;-58
2023/10/08 05:08:47;;;;;;;5.05;1.60;;;11.00;99.90;;;;;;5037160;28;20395;-58
2023/10/08 05:11:24;;;;;;;3.42;1.25;;;11.00;99.90;;;;;;5030055;28;20025;-58
2023/10/08 05:14:05;;;;;;;4.70;1.77;;;11.00;99.90;;;;;;5032742;28;20159;-58
2023/10/08 05:16:44;;;;;;;4.75;1.85;;;11.00;99.90;;;;;;5040401;28;20375;-58
2023/10/08 05:19:37;;;;;;;5.43;2.17;;;11.00;99.90;;;;;;5033387;28;20357;-59
2023/10/08 05:22:18;;;;;;;7.15;2.22;;;11.10;99.90;;;;;;5033763;28;20090;-58
2023/10/08 05:25:05;;;;;;;9.77;2.78;;;11.00;99.90;;;;;;5032419;28;20029;-58
2023/10/08 05:27:38;;;;;;;5.43;2.15;;;11.00;99.90;;;;;;5039806;28;20033;-58
2023/10/08 05:30:28;;;;;;;4.78;1.88;;;11.00;99.90;;;;;;5036098;28;20029;-58
2023/10/08 05:59:38;;;;;;;4.03;1.70;;;11.00;99.90;;;;;;5034866;28;20112;-58
2023/10/08 06:13:09;;;;;;;6.43;2.13;;;11.10;99.90;;;;;;5041777;28;20029;-58
2023/10/08 06:15:51;;;;;;;4.47;1.65;;;11.10;99.90;;;;;;5038159;28;20075;-58
2023/10/08 06:18:18;;;;;;;4.70;1.67;;;11.10;99.90;;;;;;5035359;28;20159;-58
2023/10/08 06:20:49;;;;;;;4.72;2.15;;;11.20;99.90;;;;;;5035197;28;20017;-58
2023/10/08 06:23:18;;;;;;;8.23;2.08;;;11.20;99.90;;;;;;5047194;28;20045;-58
2023/10/08 06:25:50;;;;;;;4.97;2.17;;;11.20;99.90;;;;;;5036587;28;20028;-58
2023/10/08 06:28:19;;;;;;;9.43;2.85;;;11.30;99.90;;;;;;5033464;28;20043;-58
2023/10/08 06:30:49;;;;;;;5.10;2.10;;;11.30;99.90;;;;;;5040591;28;20100;-58
2023/10/08 06:33:16;;;;;;;7.70;2.30;;;11.30;99.90;;;;;;5031559;28;20053;-58
2023/10/08 06:35:44;;;;;;;8.57;2.55;;;11.40;99.90;;;;;;5034710;28;20515;-58
2023/10/08 06:38:10;;;;;;;5.68;2.10;;;11.40;99.90;;;;;;5033945;28;20032;-58
2023/10/08 06:43:14;;;;;;;6.07;2.10;;;11.40;99.90;;;;;;5036870;28;20033;-58
2023/10/08 06:45:44;;;;;;;3.42;1.98;;;11.40;99.90;;;;;;5035886;28;20033;-58
2023/10/08 06:48:17;;;;;;;3.40;1.83;;;11.40;99.90;;;;;;5034648;28;20372;-58
2023/10/08 06:50:49;;;;;;;6.35;2.20;;;11.50;99.90;;;;;;5035263;28;20517;-58
2023/10/08 06:53:15;;;;;;;8.43;2.50;;;11.60;99.90;;;;;;5032765;28;20491;-58
2023/10/08 06:55:41;;;;;;;5.13;2.30;;;11.60;99.90;;;;;;5046859;28;20028;-59
2023/10/08 06:58:11;;;;;;;5.53;2.17;;;11.70;99.90;;;;;;5038775;28;20013;-58
2023/10/08 07:00:39;;;;;;;7.13;3.15;;;11.70;99.90;;;;;;5035516;28;20053;-58
2023/10/08 07:03:07;;;;;;;7.88;2.70;;;11.80;99.90;;;;;;5038418;28;20064;-58
2023/10/08 07:05:36;;;;;;;8.93;2.20;;;11.80;99.90;;;;;;5034545;28;20051;-58
2023/10/08 07:08:06;;;;;;;4.47;1.77;;;11.80;99.90;;;;;;5033893;28;20025;-59
2023/10/08 07:10:35;;;;;;;3.75;1.88;;;11.90;99.90;;;;;;5032608;28;20030;-58
2023/10/08 07:13:02;;;;;;;9.85;2.70;;;12.00;99.90;;;;;;5033880;28;20466;-59
2023/10/08 07:15:30;;;;;;;7.82;2.53;;;12.10;99.90;;;;;;5033575;28;20029;-58
2023/10/08 07:17:57;;;;;;;7.13;2.42;;;12.10;99.90;;;;;;5038236;28;20029;-58
2023/10/08 07:20:23;;;;;;;8.23;2.55;;;12.10;99.90;;;;;;5038143;28;20017;-58
2023/10/08 07:22:54;;;;;;;5.30;2.20;;;12.10;99.90;;;;;;5041746;28;20659;-58
2023/10/08 07:25:21;;;;;;;8.88;2.13;;;12.20;99.90;;;;;;5037458;28;20068;-59
2023/10/08 07:27:47;;;;;;;8.23;2.30;;;12.10;99.90;;;;;;5043685;28;20056;-59
2023/10/08 07:30:13;;;;;;;6.55;2.15;;;12.20;99.90;;;;;;5034167;28;20037;-58
2023/10/08 07:32:39;;;;;;;4.50;2.10;;;12.30;99.90;;;;;;5038093;28;20640;-59
2023/10/08 07:35:29;;;;;;;7.00;2.65;;;12.50;99.90;;;;;;5032390;28;20413;-59
2023/10/08 07:37:53;;;;;;;6.97;2.60;;;12.50;99.90;;;;;;5033687;28;20045;-59
2023/10/08 07:40:20;;;;;;;6.18;1.98;;;12.60;99.90;;;;;;5035867;28;20040;-58
2023/10/08 07:42:51;;;;;;;5.20;2.00;;;12.70;99.90;;;;;;5035691;28;20018;-58
2023/10/08 07:45:17;;;;;;;6.38;2.33;;;12.70;99.90;;;;;;5032434;28;20500;-58
2023/10/08 07:47:44;;;;;;;5.70;2.13;;;12.70;99.90;;;;;;5040148;28;20107;-58
2023/10/08 07:50:13;;;;;;;9.27;2.50;;;12.70;99.90;;;;;;5034417;28;20064;-59
2023/10/08 07:52:41;;;;;;;3.72;2.00;;;12.70;99.90;;;;;;5034200;28;20055;-58
2023/10/08 07:55:07;;;;;;;9.98;2.63;;;12.80;99.90;;;;;;5037207;28;20113;-58
2023/10/08 07:57:33;;;;;;;5.13;2.17;;;12.80;99.90;;;;;;5039143;28;20049;-59
2023/10/08 08:00:18;;;;;;;4.82;2.22;;;13.00;99.90;;;;;;5035467;28;20032;-58
2023/10/08 08:02:44;;;;;;;5.38;2.20;;;13.10;99.90;;;;;;5034935;28;20026;-58
2023/10/08 08:05:09;;;;;;;6.35;1.88;;;13.30;99.90;;;;;;5035404;28;20373;-59
2023/10/08 08:07:37;;;;;;;8.32;3.03;;;13.40;99.90;;;;;;5034534;28;20181;-59
2023/10/08 08:10:07;;;;;;;6.05;2.22;;;13.50;99.90;;;;;;5030789;28;20287;-59
2023/10/08 08:12:33;;;;;;;6.18;2.28;;;13.50;99.90;;;;;;5034401;28;20390;-59
2023/10/08 08:14:59;;;;;;;4.22;1.80;;;13.60;99.90;;;;;;5042546;28;20026;-59
2023/10/08 08:17:24;;;;;;;6.68;2.20;;;13.60;99.90;;;;;;5037894;28;20021;-59
2023/10/08 08:19:51;;;;;;;9.65;2.17;;;13.60;99.90;;;;;;5035042;28;20380;-59
2023/10/08 08:22:22;;;;;;;7.20;2.38;;;13.80;99.90;;;;;;5034015;28;20037;-58
2023/10/08 08:24:54;;;;;;;5.43;1.92;;;13.90;99.90;;;;;;5039091;28;20391;-59
2023/10/08 08:27:31;;;;;;;5.68;2.20;;;14.00;99.90;;;;;;5036527;28;20025;-58
2023/10/08 08:30:09;;;;;;;5.72;2.15;;;14.10;99.90;;;;;;5038227;28;20122;-59
2023/10/08 08:32:39;;;;;;;4.00;1.55;;;14.40;99.90;;;;;;5031058;28;20040;-59
2023/10/08 08:35:07;;;;;;;4.88;1.80;;;14.60;99.90;;;;;;5040205;28;20297;-59
2023/10/08 08:37:35;;;;;;;7.70;2.08;;;14.70;99.90;;;;;;5043638;28;20063;-59
2023/10/08 08:40:26;;;;;;;6.82;2.03;;;14.80;99.90;;;;;;5043030;28;20112;-59
2023/10/08 08:42:58;;;;;;;5.03;1.73;;;14.90;99.90;;;;;;5042132;28;20120;-59
2023/10/08 08:45:24;;;;;;;4.05;1.80;;;15.10;99.90;;;;;;5031623;28;20433;-59
2023/10/08 08:47:51;;;;;;;6.75;2.13;;;15.20;99.90;;;;;;5033552;28;20083;-59
2023/10/08 08:50:17;;;;;;;4.22;1.67;;;15.50;99.90;;;;;;5041485;28;20909;-59
2023/10/08 08:52:45;;;;;;;3.92;1.73;;;15.90;99.90;;;;;;5044521;28;20036;-59
2023/10/08 08:55:14;;;;;;;4.88;2.17;;;17.00;99.90;;;;;;5040861;28;20471;-59
2023/10/08 08:57:46;;;;;;;4.07;1.55;;;18.60;99.90;;;;;;5042360;28;20025;-59
2023/10/08 09:00:14;;;;;;;3.58;1.50;;;19.90;99.90;;;;;;5040158;28;20029;-60
2023/10/08 09:02:44;;;;;;;4.45;1.80;;;21.70;95.50;;;;;;5039654;28;20372;-60
2023/10/08 09:05:23;;;;;;;4.15;1.75;;;23.30;92.60;;;;;;5040625;28;20021;-60
2023/10/08 09:08:02;;;;;;;6.60;2.00;;;24.10;89.60;;;;;;5042443;28;20171;-60
2023/10/08 09:10:29;;;;;;;5.32;1.63;;;24.90;85.20;;;;;;5038928;28;20167;-61
2023/10/08 09:12:59;;;;;;;3.65;1.40;;;26.00;80.70;;;;;;5038771;28;20553;-60
2023/10/08 09:15:28;;;;;;;2.85;1.23;;;25.90;77.90;;;;;;5037785;28;20039;-61
2023/10/08 09:17:57;;;;;;;2.27;1.40;;;26.50;76.90;;;;;;5039996;28;20026;-61
2023/10/08 09:20:23;;;;;;;5.82;1.70;;;27.50;75.00;;;;;;5037691;28;20276;-61
2023/10/08 09:23:11;;;;;;;4.57;1.45;;;27.10;74.90;;;;;;5036839;28;20124;-61
2023/10/08 09:25:41;;;;;;;4.10;1.38;;;28.10;71.30;;;;;;5040879;28;20018;-61
2023/10/08 09:28:12;;;;;;;2.03;1.30;;;28.70;69.00;;;;;;5042770;28;20531;-61
2023/10/08 09:30:39;;;;;;;3.22;1.38;;;29.00;68.00;;;;;;5038193;28;20040;-61
2023/10/08 09:33:06;;;;;;;7.35;1.80;;;29.10;69.20;;;;;;5043643;28;20518;-61
2023/10/08 09:35:33;;;;;;;4.95;1.40;;;28.60;66.80;;;;;;5034023;28;20075;-61
2023/10/08 09:38:15;;;;;;;5.00;1.55;;;28.80;65.60;;;;;;5041852;28;20437;-61
2023/10/08 09:40:43;;;;;;;5.10;1.35;;;28.70;63.30;;;;;;5039435;28;20032;-61
2023/10/08 09:43:11;;;;;;;4.70;1.60;;;28.60;64.30;;;;;;5042029;28;20028;-60
2023/10/08 09:45:38;;;;;;;3.60;1.10;;;27.10;65.40;;;;;;5038376;28;20104;-60
2023/10/08 09:48:11;;;;;;;2.97;1.23;;;25.40;67.20;;;;;;5043173;28;20028;-60
2023/10/08 09:50:40;;;;;;;5.88;1.90;;;25.50;68.70;;;;;;5039610;28;20398;-60
2023/10/08 09:53:22;;;;;;;3.92;1.27;;;25.40;68.10;;;;;;5042734;28;20025;-60
2023/10/08 09:55:57;;;;;;;4.25;1.50;;;25.50;69.40;;;;;;5038220;28;20399;-60
2023/10/08 09:58:24;;;;;;;4.57;1.85;;;24.90;68.40;;;;;;5047448;28;20222;-60
2023/10/08 10:00:51;;;;;;;4.13;1.55;;;25.10;68.40;;;;;;5039345;28;20018;-60
2023/10/08 10:03:18;;;;;;;3.72;1.58;;;24.20;70.40;;;;;;5042351;28;20029;-60
2023/10/08 10:05:44;;;;;;;5.40;1.75;;;23.10;69.90;;;;;;5039160;28;20033;-60
2023/10/08 10:08:10;;;;;;;3.95;1.70;;;22.70;72.10;;;;;;5041916;28;20029;-60
2023/10/08 10:10:43;;;;;;;3.88;1.33;;;23.40;70.40;;;;;;5035166;28;20032;-60
2023/10/08 10:13:10;;;;;;;4.88;1.65;;;24.40;71.60;;;;;;5046075;28;20017;-60
2023/10/08 10:15:41;;;;;;;2.80;1.48;;;25.90;66.60;;;;;;5040447;28;20046;-61
2023/10/08 10:18:14;;;;;;;3.20;1.45;;;26.70;62.70;;;;;;5041259;28;20485;-61
2023/10/08 10:20:45;;;;;;;3.13;1.33;;;27.10;66.60;;;;;;5043192;28;20080;-61
2023/10/08 10:23:37;;;;;;;2.92;1.23;;;27.00;63.00;;;;;;5044548;28;20107;-61
2023/10/08 10:26:04;;;;;;;3.10;1.30;;;25.20;64.20;;;;;;5043079;28;20021;-60
2023/10/08 10:28:29;;;;;;;4.53;1.30;;;25.60;66.30;;;;;;5038128;28;20074;-61
2023/10/08 10:30:56;;;;;;;3.35;1.33;;;24.50;66.00;;;;;;5043054;28;20453;-60
2023/10/08 10:33:29;;;;;;;2.35;1.20;;;23.50;67.70;;;;;;5040964;28;20035;-60
2023/10/08 10:35:55;;;;;;;3.85;1.38;;;23.90;66.30;;;;;;5040480;28;20029;-60
2023/10/08 10:38:22;;;;;;;2.38;1.20;;;24.70;69.80;;;;;;5046122;28;20087;-61
2023/10/08 10:40:56;;;;;;;3.72;1.50;;;26.10;64.10;;;;;;5040812;28;20021;-61
2023/10/08 10:43:32;;;;;;;3.72;1.40;;;27.00;62.70;;;;;;5036716;28;20029;-61
2023/10/08 10:46:19;;;;;;;3.40;1.77;;;27.10;62.40;;;;;;5043352;28;20050;-61
2023/10/08 10:48:57;;;;;;;3.30;1.60;;;27.60;60.30;;;;;;5045455;28;20123;-61
2023/10/08 10:51:22;;;;;;;4.82;2.00;;;28.10;60.70;;;;;;5040877;28;20395;-61
2023/10/08 10:53:57;;;;;;;3.72;1.75;;;28.60;59.50;;;;;;5044332;28;20032;-62
2023/10/08 10:56:30;;;;;;;3.92;1.27;;;29.40;59.80;;;;;;5042113;28;20021;-61
2023/10/08 10:58:59;;;;;;;3.15;1.80;;;29.20;55.40;;;;;;5043601;28;20021;-61
2023/10/08 11:01:29;;;;;;;;;;;29.50;56.00;;;;;;5042034;28;20024;-61
2023/10/08 11:03:57;;;;;;;;;;;29.70;56.00;;;;;;5042482;28;19914;-61
2023/10/08 11:06:24;;;;;;;2.28;1.30;;;29.50;52.50;;;;;;5045391;28;19927;-61
2023/10/08 11:08:52;;;;;;;3.97;1.52;;;29.80;55.40;;;;;;5036113;28;20059;-61
2023/10/08 11:11:19;;;;;;;8.57;2.23;;;29.60;53.40;;;;;;5040205;28;20017;-61
2023/10/08 11:13:51;;;;;;;1.67;1.30;;;29.40;54.30;;;;;;5040359;28;20280;-62
2023/10/08 11:16:19;;;;;;;3.75;1.38;;;29.50;54.10;;;;;;5041541;28;20382;-61
2023/10/08 11:18:50;;;;;;;2.13;1.10;;;29.80;53.20;;;;;;5042525;28;20482;-62
2023/10/08 11:21:22;;;;;;;3.55;1.40;;;29.50;53.10;;;;;;5045556;28;20037;-59
2023/10/08 11:24:08;;;;;;;2.67;1.15;;;28.90;54.00;;;;;;5041449;28;20053;-60
2023/10/08 11:26:38;;;;;;;4.20;1.20;;;28.90;54.60;;;;;;5040977;28;20321;-60
2023/10/08 11:29:05;;;;;;;3.63;1.40;;;28.80;56.20;;;;;;5035406;28;20029;-60
2023/10/08 11:31:34;;;;;;;6.47;2.05;;;28.90;53.70;;;;;;5040110;28;20048;-59
2023/10/08 11:34:08;;;;;;;3.20;1.20;;;28.80;53.70;;;;;;5048974;28;20021;-60
2023/10/08 11:36:48;;;;;;;4.38;1.30;;;28.80;52.60;;;;;;5041387;28;20028;-59
2023/10/08 11:39:21;;;;;;;3.70;1.30;;;29.20;54.00;;;;;;5042663;28;20049;-59
2023/10/08 11:42:03;;;;;;;4.25;1.75;;;29.20;52.90;;;;;;5039668;28;20097;-59
2023/10/08 11:44:30;;;;;;;1.52;1.20;;;28.30;54.50;;;;;;5044867;28;20441;-59
2023/10/08 11:47:04;;;;;;;3.63;1.85;;;28.10;51.70;;;;;;5042477;28;20013;-58
2023/10/08 11:49:32;;;;;;;2.47;1.05;;;27.10;52.40;;;;;;5043154;28;20025;-58
2023/10/08 11:52:00;;;;;;;4.05;1.52;;;26.10;54.40;;;;;;5043417;28;20017;-59
2023/10/08 11:54:27;;;;;;;3.33;1.60;;;24.90;56.40;;;;;;5042037;28;20432;-59
2023/10/08 11:56:53;;;;;;;2.70;1.55;;;23.70;58.60;;;;;;5044779;28;20029;-58
2023/10/08 11:59:18;;;;;;;3.50;1.42;;;23.20;56.60;;;;;;5045064;28;20085;-58
2023/10/08 12:01:46;;;;;;;3.38;1.45;;;22.50;61.30;;;;;;5033312;28;20541;-58
2023/10/08 12:04:16;;;;;;;2.33;1.20;;;21.80;61.70;;;;;;5036360;28;20060;-58
2023/10/08 12:06:46;;;;;;;2.95;1.48;;;21.50;62.50;;;;;;5037941;28;20109;-58
2023/10/08 12:09:12;;;;;;;4.28;1.70;;;21.10;64.50;;;;;;5047075;28;20033;-58
2023/10/08 12:11:39;;;;;;;2.95;1.73;;;21.00;65.40;;;;;;5049610;28;20056;-58
2023/10/08 12:14:05;;;;;;;2.85;1.30;;;21.30;61.90;;;;;;5056284;28;20025;-58
2023/10/08 12:16:35;;;;;;;3.53;1.40;;;20.90;63.50;;;;;;5043355;28;20025;-58
2023/10/08 12:19:01;;;;;;;4.90;1.30;;;20.70;62.40;;;;;;5043872;28;20024;-58
2023/10/08 12:21:30;;;;;;;5.20;1.40;;;20.40;64.90;;;;;;5036724;28;20025;-58
2023/10/08 12:23:58;;;;;;;4.75;1.80;;;20.40;66.20;;;;;;5043713;28;20021;-58
2023/10/08 12:26:23;;;;;;;2.55;1.30;;;20.60;66.20;;;;;;5050344;28;20453;-58
2023/10/08 12:28:49;;;;;;;4.18;2.20;;;20.40;63.30;;;;;;5044716;28;20104;-59
2023/10/08 12:31:22;;;;;;;4.43;1.45;;;20.30;66.00;;;;;;5039960;28;20041;-58
2023/10/08 12:33:48;;;;;;;2.53;1.00;;;20.70;63.70;;;;;;5044560;28;20067;-58
2023/10/08 12:36:14;;;;;;;1.95;1.23;;;20.80;67.50;;;;;;5048276;28;20005;-58
2023/10/08 12:38:41;;;;;;;2.22;1.25;;;21.00;65.50;;;;;;5045779;28;20109;-58
2023/10/08 12:41:11;;;;;;;2.22;1.10;;;21.20;65.30;;;;;;5047903;28;20061;-58
2023/10/08 12:43:38;;;;;;;4.38;1.08;;;21.40;63.20;;;;;;5037308;28;20053;-58
2023/10/08 12:46:10;;;;;;;4.00;1.30;;;20.60;62.70;;;;;;5048723;28;20025;-58
2023/10/08 12:48:36;;;;;;;1.92;1.20;;;20.50;63.30;;;;;;5044899;28;20036;-58
2023/10/08 12:51:05;;;;;;;5.00;1.23;;;20.90;67.50;;;;;;5042357;28;20044;-58
2023/10/08 12:53:34;;;;;;;2.58;1.33;;;21.00;64.60;;;;;;5045494;28;20148;-59
2023/10/08 12:56:14;;;;;;;6.75;1.60;;;21.10;66.70;;;;;;5047911;28;20075;-58
2023/10/08 12:58:41;;;;;;;3.03;1.35;;;21.20;64.40;;;;;;5041187;28;20025;-58
2023/10/08 13:01:14;;;;;;;2.25;1.17;;;21.10;64.80;;;;;;5050542;28;20036;-58
2023/10/08 13:03:47;;;;;;;3.40;1.30;;;21.10;63.90;;;;;;5046744;28;20047;-58
2023/10/08 13:06:23;;;;;;;4.50;1.30;;;20.90;67.00;;;;;;5048849;28;20029;-58
2023/10/08 13:08:52;;;;;;;4.70;1.55;;;20.90;65.80;;;;;;5048030;28;20079;-58
2023/10/08 13:11:22;;;;;;;4.82;1.52;;;20.80;64.80;;;;;;5047138;28;20096;-58
2023/10/08 13:13:49;;;;;;;3.90;1.80;;;21.10;66.80;;;;;;5045503;28;20027;-58
2023/10/08 13:16:14;;;;;;;3.42;1.60;;;20.80;65.30;;;;;;5045244;28;20435;-59
2023/10/08 13:18:43;;;;;;;4.32;1.45;;;20.70;66.80;;;;;;5052218;28;20104;-58
2023/10/08 13:21:11;;;;;;;6.18;1.80;;;20.60;63.70;;;;;;5039707;28;20536;-58
2023/10/08 13:23:37;;;;;;;6.13;1.80;;;20.60;67.70;;;;;;5042553;28;20075;-58
2023/10/08 13:26:06;;;;;;;4.03;1.60;;;20.30;68.20;;;;;;5050098;28;20044;-58
2023/10/08 13:28:33;;;;;;;3.47;1.65;;;20.20;66.50;;;;;;5043724;28;20362;-58
2023/10/08 13:31:00;;;;;;;5.22;1.88;;;20.50;65.30;;;;;;5048219;28;20116;-58
2023/10/08 13:33:26;;;;;;;5.22;1.60;;;20.50;65.80;;;;;;5048046;28;20029;-58
2023/10/08 13:35:51;;;;;;;4.85;2.03;;;20.60;65.30;;;;;;5040582;28;20033;-58
2023/10/08 13:38:19;;;;;;;6.05;1.90;;;20.50;64.60;;;;;;5049828;28;20526;-58
2023/10/08 13:41:02;;;;;;;4.25;1.50;;;20.60;66.50;;;;;;5047924;28;20087;-58
2023/10/08 13:43:34;;;;;;;2.90;1.60;;;20.70;65.70;;;;;;5049623;28;20071;-58
2023/10/08 13:46:07;;;;;;;7.07;1.60;;;20.80;65.70;;;;;;5047654;28;20041;-58
2023/10/08 13:48:33;;;;;;;8.20;1.85;;;20.20;67.70;;;;;;5047317;28;20025;-58
2023/10/08 13:51:00;;;;;;;6.05;2.00;;;19.80;67.70;;;;;;5041064;28;20493;-58
2023/10/08 13:53:29;;;;;;;4.78;2.00;;;19.50;67.90;;;;;;5049548;28;20091;-58
2023/10/08 13:56:01;;;;;;;6.25;1.77;;;19.20;69.40;;;;;;5046497;28;20491;-58
2023/10/08 13:58:30;;;;;;;6.10;2.28;;;19.20;68.50;;;;;;5049722;28;20060;-58